createdAt,value
2023-05-20T00:00:04.331Z,98209.00
2023-05-20T00:02:54.510Z,98211.57
2023-05-20T00:05:22.666Z,98211.84
2023-05-20T00:07:50.696Z,98213.99
2023-05-20T00:10:18.786Z,98212.64
2023-05-20T00:12:46.782Z,98213.92
2023-05-20T00:15:14.943Z,98215.21
2023-05-20T00:17:43.096Z,98219.20
2023-05-20T00:20:11.621Z,98214.94
2023-05-20T00:22:39.986Z,98211.14
2023-05-20T00:25:08.599Z,98210.14
2023-05-20T00:27:36.670Z,98209.75
2023-05-20T00:30:05.242Z,98207.02
2023-05-20T00:32:35.030Z,98208.16
2023-05-20T00:35:03.995Z,98207.85
2023-05-20T00:37:32.214Z,98203.75
2023-05-20T00:40:00.358Z,98197.70
2023-05-20T00:42:29.144Z,98195.86
2023-05-20T00:45:00.638Z,98196.64
2023-05-20T00:47:32.879Z,98192.70
2023-05-20T00:50:02.125Z,98192.98
2023-05-20T00:52:32.336Z,98194.95
2023-05-20T00:55:01.251Z,98196.32
2023-05-20T00:57:30.127Z,98196.98
2023-05-20T00:59:58.947Z,98205.19
2023-05-20T01:02:27.506Z,98204.28
2023-05-20T01:04:56.980Z,98203.41
2023-05-20T01:07:26.077Z,98200.94
2023-05-20T01:09:56.210Z,98198.48
2023-05-20T01:12:32.322Z,98190.84
2023-05-20T01:15:11.846Z,98194.15
2023-05-20T01:17:45.392Z,98196.55
2023-05-20T01:20:15.455Z,98198.14
2023-05-20T01:22:49.569Z,98199.45
2023-05-20T01:25:17.539Z,98204.46
2023-05-20T01:27:49.331Z,98197.30
2023-05-20T01:30:17.758Z,98196.34
2023-05-20T01:32:52.940Z,98194.27
2023-05-20T01:35:23.197Z,98194.41
2023-05-20T01:37:53.753Z,98199.67
2023-05-20T01:40:22.382Z,98198.88
2023-05-20T01:42:53.504Z,98195.08
2023-05-20T01:45:23.466Z,98189.70
2023-05-20T01:47:52.331Z,98186.57
2023-05-20T01:50:20.457Z,98186.34
2023-05-20T01:52:48.520Z,98179.98
2023-05-20T01:55:16.655Z,98181.67
2023-05-20T01:57:45.573Z,98179.45
2023-05-20T02:00:13.860Z,98181.66
2023-05-20T02:02:42.192Z,98181.96
2023-05-20T02:05:12.966Z,98180.14
2023-05-20T02:07:43.529Z,98183.23
2023-05-20T02:10:11.923Z,98182.54
2023-05-20T02:12:40.021Z,98186.66
2023-05-20T02:15:08.930Z,98192.20
2023-05-20T02:17:37.346Z,98190.85
2023-05-20T02:20:07.752Z,98188.48
2023-05-20T02:22:36.266Z,98184.45
2023-05-20T02:25:05.404Z,98186.91
2023-05-20T02:27:33.513Z,98184.91
2023-05-20T02:30:01.530Z,98183.30
2023-05-20T02:32:29.744Z,98182.30
2023-05-20T02:34:57.836Z,98184.38
2023-05-20T02:37:27.173Z,98184.60
2023-05-20T02:39:56.300Z,98184.90
2023-05-20T02:42:25.391Z,98186.27
2023-05-20T02:44:56.601Z,98192.41
2023-05-20T02:47:25.995Z,98191.85
2023-05-20T02:49:54.082Z,98191.05
2023-05-20T02:52:22.669Z,98190.09
2023-05-20T02:54:50.879Z,98190.95
2023-05-20T02:57:20.644Z,98197.66
2023-05-20T02:59:49.092Z,98192.02
2023-05-20T03:02:18.451Z,98199.55
2023-05-20T03:04:47.352Z,98203.53
2023-05-20T03:07:19.674Z,98207.23
2023-05-20T03:09:48.081Z,98216.02
2023-05-20T03:12:16.750Z,98222.55
2023-05-20T03:14:45.789Z,98226.67
2023-05-20T03:17:14.500Z,98232.60
2023-05-20T03:19:45.018Z,98230.07
2023-05-20T03:22:13.167Z,98230.45
2023-05-20T03:24:43.056Z,98229.76
2023-05-20T03:27:14.381Z,98226.36
2023-05-20T03:29:44.646Z,98224.21
2023-05-20T03:32:12.650Z,98229.39
2023-05-20T03:34:40.885Z,98227.59
2023-05-20T03:37:08.856Z,98226.89
2023-05-20T03:39:37.168Z,98226.35
2023-05-20T03:42:05.679Z,98228.37
2023-05-20T03:44:33.914Z,98230.02
2023-05-20T03:47:02.312Z,98226.79
2023-05-20T03:49:31.328Z,98225.13
2023-05-20T03:51:59.432Z,98224.08
2023-05-20T03:54:28.153Z,98220.12
2023-05-20T03:56:56.664Z,98220.83
2023-05-20T03:59:24.852Z,98214.31
2023-05-20T04:01:53.377Z,98215.77
2023-05-20T04:04:21.540Z,98219.67
2023-05-20T04:06:50.121Z,98216.66
2023-05-20T04:09:18.087Z,98217.70
2023-05-20T04:11:46.384Z,98223.27
2023-05-20T04:14:15.396Z,98229.15
2023-05-20T04:16:43.682Z,98228.34
2023-05-20T04:19:12.955Z,98227.84
2023-05-20T04:21:43.401Z,98230.70
2023-05-20T04:24:11.859Z,98230.98
2023-05-20T04:26:40.213Z,98233.43
2023-05-20T04:29:08.287Z,98233.98
2023-05-20T04:31:36.835Z,98232.86
2023-05-20T04:34:04.889Z,98236.20
2023-05-20T04:36:34.712Z,98236.19
2023-05-20T04:39:06.005Z,98237.90
2023-05-20T04:41:34.158Z,98240.19
2023-05-20T04:44:02.510Z,98243.70
2023-05-20T04:46:31.803Z,98242.12
2023-05-20T04:49:01.013Z,98245.19
2023-05-20T04:51:30.266Z,98251.58
2023-05-20T04:53:59.134Z,98249.11
2023-05-20T04:56:29.710Z,98249.52
2023-05-20T04:58:58.590Z,98246.32
2023-05-20T05:01:26.739Z,98246.18
2023-05-20T05:03:55.069Z,98245.46
2023-05-20T05:06:23.453Z,98244.17
2023-05-20T05:08:51.422Z,98242.58
2023-05-20T05:11:19.932Z,98238.13
2023-05-20T05:13:48.174Z,98234.38
2023-05-20T05:16:16.351Z,98235.45
2023-05-20T05:18:44.381Z,98231.56
2023-05-20T05:21:12.455Z,98226.00
2023-05-20T05:23:42.597Z,98222.98
2023-05-20T05:26:11.091Z,98220.69
2023-05-20T05:28:41.365Z,98216.43
2023-05-20T05:31:12.199Z,98211.84
2023-05-20T05:33:40.319Z,98216.45
2023-05-20T05:36:09.028Z,98220.30
2023-05-20T05:38:37.319Z,98216.39
2023-05-20T05:41:05.483Z,98216.30
2023-05-20T05:43:35.746Z,98213.10
2023-05-20T05:46:05.439Z,98214.80
2023-05-20T05:48:33.690Z,98216.88
2023-05-20T05:51:01.746Z,98219.63
2023-05-20T05:53:32.386Z,98217.38
2023-05-20T05:56:00.501Z,98215.49
2023-05-20T05:58:29.137Z,98214.98
2023-05-20T06:00:57.620Z,98218.79
2023-05-20T06:03:25.783Z,98218.19
2023-05-20T06:05:54.734Z,98217.11
2023-05-20T06:08:23.266Z,98211.80
2023-05-20T06:10:51.585Z,98213.46
2023-05-20T06:13:20.796Z,98210.42
2023-05-20T06:15:53.797Z,98209.27
2023-05-20T06:18:21.890Z,98204.18
2023-05-20T06:20:58.537Z,98201.48
2023-05-20T06:23:27.058Z,98199.98
2023-05-20T06:26:00.205Z,98196.05
2023-05-20T06:28:30.303Z,98193.20
2023-05-20T06:30:58.949Z,98190.74
2023-05-20T06:33:29.892Z,98190.73
2023-05-20T06:36:03.629Z,98188.52
2023-05-20T06:38:32.271Z,98183.48
2023-05-20T06:41:01.083Z,98179.08
2023-05-20T06:43:29.515Z,98171.52
2023-05-20T06:46:12.451Z,98168.97
2023-05-20T06:48:48.925Z,98163.42
2023-05-20T06:51:18.073Z,98165.16
2023-05-20T06:53:48.589Z,98163.79
2023-05-20T06:56:17.555Z,98163.70
2023-05-20T06:58:45.657Z,98161.33
2023-05-20T07:01:16.023Z,98159.70
2023-05-20T07:03:46.129Z,98155.58
2023-05-20T07:06:14.433Z,98150.17
2023-05-20T07:08:45.317Z,98147.96
2023-05-20T07:11:13.922Z,98142.25
2023-05-20T07:13:42.083Z,98144.89
2023-05-20T07:16:15.100Z,98141.94
2023-05-20T07:18:47.314Z,98141.73
2023-05-20T07:21:16.265Z,98141.58
2023-05-20T07:23:58.972Z,98141.20
2023-05-20T07:26:28.246Z,98137.74
2023-05-20T07:28:56.361Z,98139.98
2023-05-20T07:31:24.758Z,98140.23
2023-05-20T07:33:54.446Z,98142.63
2023-05-20T07:36:25.582Z,98143.02
2023-05-20T07:39:03.195Z,98142.92
2023-05-20T07:41:36.910Z,98141.85
2023-05-20T07:44:12.483Z,98140.44
2023-05-20T07:46:43.624Z,98136.76
2023-05-20T07:49:12.654Z,98137.08
2023-05-20T07:51:41.713Z,98135.46
2023-05-20T07:54:10.865Z,98135.13
2023-05-20T07:56:39.013Z,98134.29
2023-05-20T07:59:12.173Z,98139.05
2023-05-20T08:01:46.098Z,98135.82
2023-05-20T08:04:16.475Z,98132.88
2023-05-20T08:06:46.890Z,98134.13
2023-05-20T08:09:21.813Z,98129.89
2023-05-20T08:11:51.907Z,98133.48
2023-05-20T08:14:20.316Z,98132.79
2023-05-20T08:16:53.817Z,98132.02
2023-05-20T08:19:23.930Z,98131.89
2023-05-20T08:21:52.610Z,98124.80
2023-05-20T08:24:21.532Z,98123.95
2023-05-20T08:26:50.629Z,98122.08
2023-05-20T08:29:19.385Z,98117.52
2023-05-20T08:31:49.223Z,98111.21
2023-05-20T08:34:17.656Z,98111.84
2023-05-20T08:36:46.216Z,98111.23
2023-05-20T08:39:15.376Z,98109.06
2023-05-20T08:41:44.207Z,98110.06
2023-05-20T08:44:13.722Z,98109.30
2023-05-20T08:46:44.242Z,98110.75
2023-05-20T08:49:14.587Z,98111.77
2023-05-20T08:51:43.204Z,98109.80
2023-05-20T08:54:17.014Z,98106.41
2023-05-20T08:56:45.995Z,98104.60
2023-05-20T08:59:17.498Z,98102.95
2023-05-20T09:01:46.210Z,98101.14
2023-05-20T09:04:14.356Z,98103.36
2023-05-20T09:06:47.947Z,98100.45
2023-05-20T09:09:16.146Z,98101.61
2023-05-20T09:11:44.591Z,98101.69
2023-05-20T09:14:12.758Z,98097.80
2023-05-20T09:16:41.696Z,98097.60
2023-05-20T09:19:11.113Z,98100.80
2023-05-20T09:21:42.288Z,98105.44
2023-05-20T09:24:10.359Z,98104.76
2023-05-20T09:26:38.585Z,98101.98
2023-05-20T09:29:08.944Z,98104.98
2023-05-20T09:31:40.687Z,98107.05
2023-05-20T09:34:09.815Z,98100.45
2023-05-20T09:36:40.103Z,98095.98
2023-05-20T09:39:12.295Z,98094.45
2023-05-20T09:42:03.932Z,98092.94
2023-05-20T09:44:34.895Z,98092.36
2023-05-20T09:47:06.965Z,98092.17
2023-05-20T09:49:38.086Z,98087.58
2023-05-20T09:52:08.944Z,98089.02
2023-05-20T09:54:37.781Z,98081.06
2023-05-20T09:57:08.129Z,98076.94
2023-05-20T09:59:39.226Z,98074.52
2023-05-20T10:02:09.020Z,98069.67
2023-05-20T10:04:43.083Z,98069.31
2023-05-20T10:07:42.070Z,98063.43
2023-05-20T10:10:15.748Z,98063.42
2023-05-20T10:13:14.705Z,98054.38
2023-05-20T10:16:07.045Z,98051.19
2023-05-20T10:18:47.843Z,98046.30
2023-05-20T10:21:17.948Z,98043.09
2023-05-20T10:23:46.436Z,98041.98
2023-05-20T10:26:14.610Z,98034.49
2023-05-20T10:28:43.667Z,98035.95
2023-05-20T10:31:22.675Z,98032.44
2023-05-20T10:33:59.049Z,98031.19
2023-05-20T10:36:29.713Z,98027.66
2023-05-20T10:39:01.009Z,98025.89
2023-05-20T10:41:29.548Z,98029.98
2023-05-20T10:44:07.592Z,98027.89
2023-05-20T10:46:48.660Z,98025.59
2023-05-20T10:49:34.404Z,98023.17
2023-05-20T10:52:04.417Z,98019.06
2023-05-20T10:54:47.347Z,98013.40
2023-05-20T10:57:18.716Z,98008.05
2023-05-20T10:59:47.725Z,98001.48
2023-05-20T11:02:17.447Z,97996.65
2023-05-20T11:04:49.421Z,97995.09
2023-05-20T11:07:28.542Z,97993.64
2023-05-20T11:10:01.179Z,97987.82
2023-05-20T11:12:31.756Z,97988.30
2023-05-20T11:15:00.239Z,97984.70
2023-05-20T11:17:28.615Z,97982.48
2023-05-20T11:20:00.950Z,97981.95
2023-05-20T11:22:29.213Z,97978.52
2023-05-20T11:24:57.239Z,97975.55
2023-05-20T11:27:25.359Z,97971.11
2023-05-20T11:29:54.419Z,97973.56
2023-05-20T11:32:23.390Z,97966.08
2023-05-20T11:34:52.791Z,97963.35
2023-05-20T11:37:22.086Z,97960.77
2023-05-20T11:40:13.561Z,97961.99
2023-05-20T11:42:45.747Z,97956.89
2023-05-20T11:45:14.530Z,97954.23
2023-05-20T11:47:42.764Z,97950.09
2023-05-20T11:50:18.972Z,97951.30
2023-05-20T11:53:00.028Z,97948.03
2023-05-20T11:55:28.337Z,97942.19
2023-05-20T11:57:59.150Z,97942.98
2023-05-20T12:00:31.293Z,97940.86
2023-05-20T12:03:04.875Z,97938.82
2023-05-20T12:05:33.185Z,97933.41
2023-05-20T12:08:01.913Z,97926.91
2023-05-20T12:10:31.336Z,97923.79
2023-05-20T12:12:59.963Z,97927.02
2023-05-20T12:15:30.867Z,97926.03
2023-05-20T12:17:59.187Z,97926.31
2023-05-20T12:20:27.441Z,97925.34
2023-05-20T12:22:55.887Z,97923.08
2023-05-20T12:25:24.376Z,97922.58
2023-05-20T12:27:53.190Z,97916.75
2023-05-20T12:30:23.281Z,97916.23
2023-05-20T12:32:52.848Z,97914.46
2023-05-20T12:35:39.078Z,97909.86
2023-05-20T12:38:07.393Z,97909.89
2023-05-20T12:40:37.319Z,97916.66
2023-05-20T12:43:06.344Z,97928.21
2023-05-20T12:45:34.555Z,97956.23
2023-05-20T12:48:10.009Z,97984.05
2023-05-20T12:50:39.940Z,98022.85
2023-05-20T12:53:10.444Z,98052.29
2023-05-20T12:55:39.645Z,98080.35
2023-05-20T12:58:10.554Z,98099.28
2023-05-20T13:00:39.328Z,98116.45
2023-05-20T13:03:07.728Z,98130.55
2023-05-20T13:05:36.780Z,98129.65
2023-05-20T13:08:05.799Z,98129.05
2023-05-20T13:10:34.386Z,98123.86
2023-05-20T13:13:02.757Z,98117.66
2023-05-20T13:15:33.433Z,98106.20
2023-05-20T13:18:06.126Z,98095.24
2023-05-20T13:20:34.441Z,98088.61
2023-05-20T13:23:03.099Z,98099.00
2023-05-20T13:25:32.097Z,98103.55
2023-05-20T13:28:01.439Z,98092.09
2023-05-20T13:30:30.147Z,98085.86
2023-05-20T13:32:58.751Z,98077.05
2023-05-20T13:35:26.945Z,98082.91
2023-05-20T13:37:55.101Z,98100.59
2023-05-20T13:40:23.154Z,98111.00
2023-05-20T13:42:51.365Z,98133.43
2023-05-20T13:45:23.721Z,98148.93
2023-05-20T13:47:51.845Z,98141.04
2023-05-20T13:50:20.126Z,98130.81
2023-05-20T13:52:48.320Z,98125.23
2023-05-20T13:55:16.398Z,98117.23
2023-05-20T13:57:44.686Z,98104.30
2023-05-20T14:00:15.202Z,98097.65
2023-05-20T14:02:43.389Z,98098.56
2023-05-20T14:05:11.925Z,98091.41
2023-05-20T14:07:40.027Z,98084.90
2023-05-20T14:10:09.345Z,98078.15
2023-05-20T14:12:38.372Z,98072.77
2023-05-20T14:15:07.577Z,98069.60
2023-05-20T14:17:35.861Z,98057.77
2023-05-20T14:20:04.827Z,98049.83
2023-05-20T14:22:36.578Z,98047.89
2023-05-20T14:25:05.987Z,98042.59
2023-05-20T14:27:35.054Z,98055.16
2023-05-20T14:30:03.812Z,98061.90
2023-05-20T14:32:33.203Z,98061.95
2023-05-20T14:35:01.912Z,98064.15
2023-05-20T14:37:30.577Z,98053.12
2023-05-20T14:39:58.950Z,98039.55
2023-05-20T14:42:27.331Z,98032.68
2023-05-20T14:44:55.514Z,98017.05
2023-05-20T14:47:24.543Z,98011.68
2023-05-20T14:49:53.024Z,97998.41
2023-05-20T14:52:21.193Z,97995.13
2023-05-20T14:54:50.977Z,97998.56
2023-05-20T14:57:21.925Z,97998.16
2023-05-20T14:59:52.589Z,97988.33
2023-05-20T15:02:21.025Z,97992.58
2023-05-20T15:04:49.867Z,97989.53
2023-05-20T15:07:18.311Z,97988.41
2023-05-20T15:09:50.091Z,97982.30
2023-05-20T15:12:20.619Z,97985.98
2023-05-20T15:14:48.703Z,97981.31
2023-05-20T15:17:17.246Z,97969.52
2023-05-20T15:19:45.432Z,97973.58
2023-05-20T15:22:13.496Z,97986.23
2023-05-20T15:24:41.663Z,97974.52
2023-05-20T15:27:09.927Z,97965.48
2023-05-20T15:29:38.941Z,97959.11
2023-05-20T15:32:09.720Z,97959.41
2023-05-20T15:34:37.789Z,97951.85
2023-05-20T15:37:06.162Z,97930.16
2023-05-20T15:39:37.785Z,97914.95
2023-05-20T15:42:06.652Z,97918.95
2023-05-20T15:44:36.160Z,97937.64
2023-05-20T15:47:06.174Z,97942.79
2023-05-20T15:49:34.489Z,97945.19
2023-05-20T15:52:04.393Z,97931.60
2023-05-20T15:54:35.292Z,97928.70
2023-05-20T15:57:03.692Z,97926.56
2023-05-20T15:59:32.401Z,97942.58
2023-05-20T16:02:01.433Z,97945.86
2023-05-20T16:04:31.639Z,97953.45
2023-05-20T16:07:01.869Z,97949.14
2023-05-20T16:09:30.967Z,97960.08
2023-05-20T16:11:59.253Z,97943.73
2023-05-20T16:14:28.204Z,97932.92
2023-05-20T16:16:56.320Z,97919.88
2023-05-20T16:19:24.492Z,97905.30
2023-05-20T16:21:52.836Z,97896.11
2023-05-20T16:24:21.341Z,97890.92
2023-05-20T16:26:49.381Z,97893.98
2023-05-20T16:29:18.971Z,97891.45
2023-05-20T16:31:47.401Z,97889.16
2023-05-20T16:34:16.829Z,97889.28
2023-05-20T16:36:47.740Z,97887.77
2023-05-20T16:39:16.119Z,97888.04
2023-05-20T16:41:44.906Z,97890.04
2023-05-20T16:44:13.089Z,97892.15
2023-05-20T16:46:41.642Z,97887.17
2023-05-20T16:49:09.764Z,97890.93
2023-05-20T16:51:38.036Z,97900.40
2023-05-20T16:54:08.305Z,97898.01
2023-05-20T16:56:37.774Z,97892.23
2023-05-20T16:59:06.305Z,97894.59
2023-05-20T17:01:34.630Z,97900.55
2023-05-20T17:04:04.691Z,97906.61
2023-05-20T17:06:34.563Z,97915.05
2023-05-20T17:09:04.565Z,97917.48
2023-05-20T17:11:34.493Z,97917.41
2023-05-20T17:14:03.335Z,97905.83
2023-05-20T17:16:32.444Z,97907.54
2023-05-20T17:19:01.452Z,97911.02
2023-05-20T17:21:29.903Z,97913.27
2023-05-20T17:23:58.122Z,97926.28
2023-05-20T17:26:26.355Z,97930.77
2023-05-20T17:28:57.355Z,97935.73
2023-05-20T17:31:26.186Z,97922.80
2023-05-20T17:33:54.941Z,97928.29
2023-05-20T17:36:23.964Z,97927.63
2023-05-20T17:38:52.329Z,97945.22
2023-05-20T17:41:21.915Z,97949.38
2023-05-20T17:43:50.048Z,97944.73
2023-05-20T17:46:18.755Z,97942.80
2023-05-20T17:48:46.977Z,97936.34
2023-05-20T17:51:15.432Z,97935.16
2023-05-20T17:53:43.790Z,97935.64
2023-05-20T17:56:11.877Z,97940.15
2023-05-20T17:58:40.036Z,97943.71
2023-05-20T18:01:11.816Z,97945.88
2023-05-20T18:03:40.645Z,97949.89
2023-05-20T18:06:08.939Z,97955.02
2023-05-20T18:08:37.473Z,97955.44
2023-05-20T18:11:05.732Z,97965.91
2023-05-20T18:13:35.621Z,97964.14
2023-05-20T18:16:05.009Z,97970.01
2023-05-20T18:18:33.333Z,97972.70
2023-05-20T18:21:01.729Z,97974.02
2023-05-20T18:23:29.916Z,97974.42
2023-05-20T18:25:58.046Z,97974.85
2023-05-20T18:28:26.644Z,97981.52
2023-05-20T18:31:00.300Z,97980.02
2023-05-20T18:33:28.372Z,97981.86
2023-05-20T18:35:56.877Z,97983.49
2023-05-20T18:38:26.082Z,97978.54
2023-05-20T18:40:55.224Z,97978.86
2023-05-20T18:43:23.460Z,97979.48
2023-05-20T18:45:51.854Z,97992.04
2023-05-20T18:48:26.666Z,98001.01
2023-05-20T18:50:57.927Z,98009.54
2023-05-20T18:53:26.150Z,98022.89
2023-05-20T18:55:54.342Z,98036.30
2023-05-20T18:58:22.703Z,98044.34
2023-05-20T19:00:51.182Z,98046.58
2023-05-20T19:03:19.702Z,98050.79
2023-05-20T19:05:48.216Z,98042.45
2023-05-20T19:08:16.885Z,98041.42
2023-05-20T19:10:44.946Z,98041.85
2023-05-20T19:13:13.176Z,98050.23
2023-05-20T19:15:41.886Z,98054.35
2023-05-20T19:18:10.084Z,98059.98
2023-05-20T19:20:39.407Z,98061.80
2023-05-20T19:23:07.607Z,98063.57
2023-05-20T19:25:36.557Z,98064.86
2023-05-20T19:28:06.176Z,98068.95
2023-05-20T19:30:37.535Z,98071.91
2023-05-20T19:33:06.303Z,98077.19
2023-05-20T19:35:37.085Z,98083.95
2023-05-20T19:38:06.994Z,98087.38
2023-05-20T19:40:36.266Z,98081.27
2023-05-20T19:43:04.855Z,98075.52
2023-05-20T19:45:33.068Z,98076.19
2023-05-20T19:48:01.646Z,98079.21
2023-05-20T19:50:30.510Z,98085.23
2023-05-20T19:52:59.496Z,98086.55
2023-05-20T19:55:27.802Z,98088.10
2023-05-20T19:57:56.417Z,98097.25
2023-05-20T20:00:24.810Z,98096.45
2023-05-20T20:02:53.367Z,98087.84
2023-05-20T20:05:23.933Z,98081.32
2023-05-20T20:07:52.209Z,98080.90
2023-05-20T20:10:22.143Z,98080.29
2023-05-20T20:12:50.546Z,98077.83
2023-05-20T20:15:20.504Z,98079.25
2023-05-20T20:17:52.239Z,98080.41
2023-05-20T20:20:20.647Z,98078.90
2023-05-20T20:22:48.833Z,98078.60
2023-05-20T20:25:17.237Z,98072.34
2023-05-20T20:27:45.603Z,98074.55
2023-05-20T20:30:14.810Z,98071.35
2023-05-20T20:32:42.877Z,98065.64
2023-05-20T20:35:11.380Z,98067.69
2023-05-20T20:37:39.486Z,98072.29
2023-05-20T20:40:13.376Z,98071.30
2023-05-20T20:42:45.055Z,98075.02
2023-05-20T20:45:15.214Z,98090.73
2023-05-20T20:47:45.400Z,98097.28
2023-05-20T20:50:13.539Z,98088.63
2023-05-20T20:52:42.913Z,98085.73
2023-05-20T20:55:12.157Z,98084.97
2023-05-20T20:57:42.065Z,98084.39
2023-05-20T21:00:17.763Z,98079.42
2023-05-20T21:02:48.538Z,98077.98
2023-05-20T21:05:16.943Z,98081.80
2023-05-20T21:07:53.282Z,98082.42
2023-05-20T21:10:22.062Z,98073.23
2023-05-20T21:12:50.287Z,98064.83
2023-05-20T21:15:18.634Z,98063.46
2023-05-20T21:17:47.233Z,98064.45
2023-05-20T21:20:19.477Z,98060.14
2023-05-20T21:22:51.372Z,98059.79
2023-05-20T21:25:20.449Z,98056.98
2023-05-20T21:27:48.576Z,98050.02
2023-05-20T21:30:17.867Z,98046.83
2023-05-20T21:32:46.012Z,98048.31
2023-05-20T21:35:16.605Z,98051.27
2023-05-20T21:37:44.641Z,98045.43
2023-05-20T21:40:13.263Z,98047.30
2023-05-20T21:42:41.420Z,98048.66
2023-05-20T21:45:10.720Z,98049.45
2023-05-20T21:47:39.401Z,98046.85
2023-05-20T21:50:09.955Z,98046.86
2023-05-20T21:52:39.879Z,98048.95
2023-05-20T21:55:10.710Z,98055.73
2023-05-20T21:57:38.848Z,98064.66
2023-05-20T22:00:15.300Z,98061.21
2023-05-20T22:02:43.511Z,98058.23
2023-05-20T22:05:12.052Z,98052.10
2023-05-20T22:07:47.519Z,98051.87
2023-05-20T22:10:17.561Z,98046.69
2023-05-20T22:12:45.808Z,98048.96
2023-05-20T22:15:14.012Z,98048.23
2023-05-20T22:17:42.384Z,98046.30
2023-05-20T22:20:11.497Z,98048.09
2023-05-20T22:22:39.792Z,98047.15
2023-05-20T22:25:09.497Z,98041.81
2023-05-20T22:27:38.765Z,98040.16
2023-05-20T22:30:08.427Z,98046.17
2023-05-20T22:32:37.330Z,98049.26
2023-05-20T22:35:06.611Z,98056.54
2023-05-20T22:37:37.710Z,98061.33
2023-05-20T22:40:06.467Z,98060.50
2023-05-20T22:42:34.564Z,98053.61
2023-05-20T22:45:02.773Z,98051.58
2023-05-20T22:47:31.627Z,98048.08
2023-05-20T22:50:02.580Z,98048.94
2023-05-20T22:52:32.742Z,98048.08
2023-05-20T22:55:00.780Z,98049.04
2023-05-20T22:57:29.214Z,98050.64
2023-05-20T22:59:58.264Z,98056.33
2023-05-20T23:02:27.206Z,98057.95
2023-05-20T23:04:56.079Z,98055.30
2023-05-20T23:07:24.703Z,98046.92
2023-05-20T23:09:52.803Z,98043.38
2023-05-20T23:12:20.888Z,98042.05
2023-05-20T23:14:48.890Z,98040.92
2023-05-20T23:17:16.948Z,98039.94
2023-05-20T23:19:44.951Z,98038.75
2023-05-20T23:22:14.216Z,98040.72
2023-05-20T23:24:45.416Z,98044.00
2023-05-20T23:27:13.438Z,98043.72
2023-05-20T23:29:42.208Z,98042.77
2023-05-20T23:32:10.299Z,98045.95
2023-05-20T23:34:41.086Z,98044.20
2023-05-20T23:37:09.719Z,98043.52
2023-05-20T23:39:38.616Z,98040.86
2023-05-20T23:42:06.646Z,98041.68
2023-05-20T23:44:34.606Z,98038.59
2023-05-20T23:47:04.106Z,98036.86
2023-05-20T23:49:32.707Z,98036.16
2023-05-20T23:52:01.568Z,98031.23
2023-05-20T23:54:30.031Z,98029.30
2023-05-20T23:56:58.149Z,98028.47
2023-05-20T23:59:26.297Z,98029.36
